Norwegian Jade — C6WK7 — position and weather

sailwx.info

Track history (hours):
 
Tides and Currents Weather Stations Pressure Air Temp Water Temp Dewpoint Dewpoint Depression Visibility Wind Speed Wind Dir Waves Ship Positions

Norwegian Jade

Last reported at 2018-Dec-13 12:26 UTC. Time now 2018-Dec-13 12:48 UTC.
Position N 14°01' W 060°60'.

Length 294 m; draft 8.6 m.

Type: Passenger vessel. MMSI: 308416000.

Date/timePositionNaut miles runAvg speedWind from/ knotsBaromVisibWave heightAir tempDewpointWater temp
2018-Dec-13 12:26N 14°01' W 060°60'0 0.1
2018-Dec-13 11:21N 14°01' W 060°60'2 4.3
2018-Dec-13 11:00N 14°02' W 061°01'510.0
2018-Dec-13 10:30N 14°06' W 061°03'612.0
2018-Dec-13 10:00N 14°11' W 060°59'612.7
2018-Dec-13 09:30N 14°11' W 060°52'612.7
2018-Dec-13 09:00N 14°08' W 060°47'612.8
2018-Dec-13 08:30N 14°03' W 060°43'1529.3
2018-Dec-13 08:00N 13°54' W 060°30'14 0.5 080 / 271017.127.0 25.0 28.0
2018-Dec-12 07:00N 14°02' W 060°41'816.8
2018-Dec-12 06:30N 14°08' W 060°47'816.4
2018-Dec-12 06:00N 14°13' W 060°54'816.2
2018-Dec-12 05:30N 14°17' W 061°01'816.1
2018-Dec-12 05:00N 14°22' W 061°08'2120.7
2018-Dec-12 04:00N 14°36' W 061°24'17520.5 110 / 201020.110.8 26.021.529.0
2018-Dec-11 19:29N 17°13' W 062°43'3 0.3
2018-Dec-11 10:45N 17°15' W 062°46'812.4
2018-Dec-11 10:04N 17°10' W 062°53'111.4
2018-Dec-11 10:00N 17°10' W 062°54'3512.7
2018-Dec-11 07:13N 16°58' W 063°29'10711.9
2018-Dec-10 22:14N 18°10' W 064°52'412.8
2018-Dec-10 21:57N 18°13' W 064°54'4 0.3
2018-Dec-10 09:41N 18°15' W 064°57'56 9.8
2018-Dec-10 04:00N 18°30' W 065°54'141 7.8 130 / 181020.1 5.4 26.021.529.0
2018-Dec-09 10:00N 19°54' W 067°54'13722.8 090 / 251020.110.8 25.0 29.0
2018-Dec-09 04:00N 21°12' W 069°54'10717.8 090 / 181022.1 5.4 26.021.528.0
2018-Dec-08 22:00N 22°18' W 071°24'24624.6 080 / 161022.110.8 26.0 29.0
2018-Dec-08 12:00N 24°36' W 075°06'13722.8 070 / 241023.127.0 23.0 29.0
2018-Dec-08 06:00N 25°42' W 077°18'4522.4 090 / 201026.127.0 24.0 23.0
2018-Dec-08 04:00N 25°54' W 078°06'7125.0 090 / 171026.110.8 23.016.528.0
2018-Dec-08 01:08N 25°59' W 079°25'324.0
2018-Dec-08 01:00N 25°58' W 079°28'1224.2
2018-Dec-08 00:30N 25°54' W 079°41'1224.0
2018-Dec-08 00:00N 25°50' W 079°53'918.6
2018-Dec-07 23:30N 25°48' W 080°03'5 9.5
2018-Dec-07 23:00N 25°46' W 080°08'1 2.4
2018-Dec-07 22:30N 25°46' W 080°10'0 0.0
2018-Dec-07 22:00N 25°46' W 080°10'0 0.0
2018-Dec-07 21:30N 25°46' W 080°10'0 0.0
2018-Dec-07 21:00N 25°46' W 080°10'0 0.0
2018-Dec-07 20:30N 25°46' W 080°10'0 0.0
2018-Dec-07 20:00N 25°46' W 080°10'0 0.0
2018-Dec-07 19:30N 25°46' W 080°10'0 0.0
2018-Dec-07 19:00N 25°46' W 080°10'0 0.0
2018-Dec-07 18:30N 25°46' W 080°10'0 0.0
2018-Dec-07 18:00N 25°46' W 080°10'0 0.0
2018-Dec-07 17:30N 25°46' W 080°10'0 0.0
2018-Dec-07 16:57N 25°46' W 080°10'0 0.0
2018-Dec-07 16:27N 25°46' W 080°10'0 0.0
2018-Dec-07 15:54N 25°46' W 080°10'0 0.0
2018-Dec-07 15:24N 25°46' W 080°10'0 0.0
2018-Dec-07 14:57N 25°46' W 080°10'0 0.0
2018-Dec-07 14:30N 25°46' W 080°10'0 0.0
2018-Dec-07 13:57N 25°46' W 080°10'0 0.0
2018-Dec-07 13:30N 25°46' W 080°10'0 0.0
2018-Dec-07 12:57N 25°46' W 080°10'0 0.0
2018-Dec-07 12:30N 25°46' W 080°10'0 0.0
2018-Dec-07 12:00N 25°46' W 080°10'0 0.0
2018-Dec-07 11:30N 25°46' W 080°10'0 0.0
2018-Dec-07 11:00N 25°46' W 080°10'0 0.0
2018-Dec-07 10:30N 25°46' W 080°10'0 0.1
2018-Dec-07 10:00N 25°46' W 080°10'1 2.2
2018-Dec-07 09:30N 25°47' W 080°11'4 7.4
2018-Dec-07 09:00N 25°45' W 080°07'611.4
2018-Dec-07 08:30N 25°47' W 080°01'510.6
2018-Dec-07 08:00N 25°42' W 079°58'713.3
2018-Dec-07 07:30N 25°36' W 079°58'713.9
2018-Dec-07 07:00N 25°29' W 079°58'816.1
2018-Dec-07 06:30N 25°21' W 079°58'816.1
2018-Dec-07 06:00N 25°13' W 080°01'1313.1
2018-Dec-07 05:00N 25°00' W 080°00'1531.7 110 / 211026.110.8 23.0 28.0
2018-Dec-07 04:31N 24°53' W 080°15'015.4
2018-Dec-07 04:31N 24°53' W 080°15'815.7
2018-Dec-07 04:01N 24°46' W 080°20'17916.2
2018-Dec-06 17:00N 23°12' W 083°06'36915.4 090 / 181024.110.8 23.0 29.0
2018-Dec-05 17:00N 18°42' W 087°36'48 6.9 070 / 61020.110.8 30.0 29.0
2018-Dec-05 10:00N 17°54' W 087°30'104 6.1 100 / 141018.1 5.4 27.022.629.0
2018-Dec-04 17:00N 16°24' W 088°24'33 4.2 060 / 101017.127.0 29.0 29.0
2018-Dec-04 09:00N 16°00' W 088°00'   360 / 121014.1 5.4 27.024.729.0
Track history (hours):
 
Tides and Currents Weather Stations Pressure Air Temp Water Temp Dewpoint Dewpoint Depression Visibility Wind Speed Wind Dir Waves Ship Positions

Norwegian Jade

Last reported at 2018-Dec-13 12:26 UTC. Time now 2018-Dec-13 12:48 UTC.
Position N 14°01' W 060°60'.

Length 294 m; draft 8.6 m.

Type: Passenger vessel. MMSI: 308416000.

Date/timePositionNaut miles runAvg speedWind from/ knotsBaromVisibWave heightAir tempDewpointWater temp
2018-Dec-13 12:26N 14°01' W 060°60'0 0.1
2018-Dec-13 11:21N 14°01' W 060°60'2 4.3
2018-Dec-13 11:00N 14°02' W 061°01'510.0
2018-Dec-13 10:30N 14°06' W 061°03'612.0
2018-Dec-13 10:00N 14°11' W 060°59'612.7
2018-Dec-13 09:30N 14°11' W 060°52'612.7
2018-Dec-13 09:00N 14°08' W 060°47'612.8
2018-Dec-13 08:30N 14°03' W 060°43'1529.3
2018-Dec-13 08:00N 13°54' W 060°30'14 0.5 080 / 271017.127.0 25.0 28.0
2018-Dec-12 07:00N 14°02' W 060°41'816.8
2018-Dec-12 06:30N 14°08' W 060°47'816.4
2018-Dec-12 06:00N 14°13' W 060°54'816.2
2018-Dec-12 05:30N 14°17' W 061°01'816.1
2018-Dec-12 05:00N 14°22' W 061°08'2120.7
2018-Dec-12 04:00N 14°36' W 061°24'17520.5 110 / 201020.110.8 26.021.529.0
2018-Dec-11 19:29N 17°13' W 062°43'3 0.3
2018-Dec-11 10:45N 17°15' W 062°46'812.4
2018-Dec-11 10:04N 17°10' W 062°53'111.4
2018-Dec-11 10:00N 17°10' W 062°54'3512.7
2018-Dec-11 07:13N 16°58' W 063°29'10711.9
2018-Dec-10 22:14N 18°10' W 064°52'412.8
2018-Dec-10 21:57N 18°13' W 064°54'4 0.3
2018-Dec-10 09:41N 18°15' W 064°57'56 9.8
2018-Dec-10 04:00N 18°30' W 065°54'141 7.8 130 / 181020.1 5.4 26.021.529.0
2018-Dec-09 10:00N 19°54' W 067°54'13722.8 090 / 251020.110.8 25.0 29.0
2018-Dec-09 04:00N 21°12' W 069°54'10717.8 090 / 181022.1 5.4 26.021.528.0
2018-Dec-08 22:00N 22°18' W 071°24'24624.6 080 / 161022.110.8 26.0 29.0
2018-Dec-08 12:00N 24°36' W 075°06'13722.8 070 / 241023.127.0 23.0 29.0
2018-Dec-08 06:00N 25°42' W 077°18'4522.4 090 / 201026.127.0 24.0 23.0
2018-Dec-08 04:00N 25°54' W 078°06'7125.0 090 / 171026.110.8 23.016.528.0
2018-Dec-08 01:08N 25°59' W 079°25'324.0
2018-Dec-08 01:00N 25°58' W 079°28'1224.2
2018-Dec-08 00:30N 25°54' W 079°41'1224.0
2018-Dec-08 00:00N 25°50' W 079°53'918.6
2018-Dec-07 23:30N 25°48' W 080°03'5 9.5
2018-Dec-07 23:00N 25°46' W 080°08'1 2.4
2018-Dec-07 22:30N 25°46' W 080°10'0 0.0
2018-Dec-07 22:00N 25°46' W 080°10'0 0.0
2018-Dec-07 21:30N 25°46' W 080°10'0 0.0
2018-Dec-07 21:00N 25°46' W 080°10'0 0.0
2018-Dec-07 20:30N 25°46' W 080°10'0 0.0
2018-Dec-07 20:00N 25°46' W 080°10'0 0.0
2018-Dec-07 19:30N 25°46' W 080°10'0 0.0
2018-Dec-07 19:00N 25°46' W 080°10'0 0.0
2018-Dec-07 18:30N 25°46' W 080°10'0 0.0
2018-Dec-07 18:00N 25°46' W 080°10'0 0.0
2018-Dec-07 17:30N 25°46' W 080°10'0 0.0
2018-Dec-07 16:57N 25°46' W 080°10'0 0.0
2018-Dec-07 16:27N 25°46' W 080°10'0 0.0
2018-Dec-07 15:54N 25°46' W 080°10'0 0.0
2018-Dec-07 15:24N 25°46' W 080°10'0 0.0
2018-Dec-07 14:57N 25°46' W 080°10'0 0.0
2018-Dec-07 14:30N 25°46' W 080°10'0 0.0
2018-Dec-07 13:57N 25°46' W 080°10'0 0.0
2018-Dec-07 13:30N 25°46' W 080°10'0 0.0
2018-Dec-07 12:57N 25°46' W 080°10'0 0.0
2018-Dec-07 12:30N 25°46' W 080°10'0 0.0
2018-Dec-07 12:00N 25°46' W 080°10'0 0.0
2018-Dec-07 11:30N 25°46' W 080°10'0 0.0
2018-Dec-07 11:00N 25°46' W 080°10'0 0.0
2018-Dec-07 10:30N 25°46' W 080°10'0 0.1
2018-Dec-07 10:00N 25°46' W 080°10'1 2.2
2018-Dec-07 09:30N 25°47' W 080°11'4 7.4
2018-Dec-07 09:00N 25°45' W 080°07'611.4
2018-Dec-07 08:30N 25°47' W 080°01'510.6
2018-Dec-07 08:00N 25°42' W 079°58'713.3
2018-Dec-07 07:30N 25°36' W 079°58'713.9
2018-Dec-07 07:00N 25°29' W 079°58'816.1
2018-Dec-07 06:30N 25°21' W 079°58'816.1
2018-Dec-07 06:00N 25°13' W 080°01'1313.1
2018-Dec-07 05:00N 25°00' W 080°00'1531.7 110 / 211026.110.8 23.0 28.0
2018-Dec-07 04:31N 24°53' W 080°15'015.4
2018-Dec-07 04:31N 24°53' W 080°15'815.7
2018-Dec-07 04:01N 24°46' W 080°20'17916.2
2018-Dec-06 17:00N 23°12' W 083°06'36915.4 090 / 181024.110.8 23.0 29.0
2018-Dec-05 17:00N 18°42' W 087°36'48 6.9 070 / 61020.110.8 30.0 29.0
2018-Dec-05 10:00N 17°54' W 087°30'104 6.1 100 / 141018.1 5.4 27.022.629.0
2018-Dec-04 17:00N 16°24' W 088°24'33 4.2 060 / 101017.127.0 29.0 29.0
2018-Dec-04 09:00N 16°00' W 088°00'   360 / 121014.1 5.4 27.024.729.0

Dump ship's entire track history